sensor_id;sensor_type;location;lat;lon;timestamp;P1;durP1;ratioP1;P2;durP2;ratioP2
26718;SDS011;14326;50.794;6.060;2022-12-29T00:01:58;1.88;;;0.70;;
26718;SDS011;14326;50.794;6.060;2022-12-29T00:04:24;0.95;;;0.70;;
26718;SDS011;14326;50.794;6.060;2022-12-29T00:06:53;1.42;;;0.50;;
26718;SDS011;14326;50.794;6.060;2022-12-29T00:09:20;1.98;;;0.68;;
26718;SDS011;14326;50.794;6.060;2022-12-29T00:11:46;1.00;;;0.70;;
26718;SDS011;14326;50.794;6.060;2022-12-29T00:14:15;1.23;;;0.60;;
26718;SDS011;14326;50.794;6.060;2022-12-29T00:16:59;2.15;;;0.70;;
26718;SDS011;14326;50.794;6.060;2022-12-29T00:19:26;3.60;;;1.02;;
26718;SDS011;14326;50.794;6.060;2022-12-29T00:22:12;0.90;;;0.65;;
26718;SDS011;14326;50.794;6.060;2022-12-29T00:24:57;1.85;;;0.60;;
26718;SDS011;14326;50.794;6.060;2022-12-29T00:27:44;2.20;;;0.70;;
26718;SDS011;14326;50.794;6.060;2022-12-29T00:30:28;0.52;;;0.52;;
26718;SDS011;14326;50.794;6.060;2022-12-29T00:33:13;0.70;;;0.60;;
26718;SDS011;14326;50.794;6.060;2022-12-29T00:35:59;1.13;;;0.65;;
26718;SDS011;14326;50.794;6.060;2022-12-29T00:38:29;0.97;;;0.63;;
26718;SDS011;14326;50.794;6.060;2022-12-29T00:41:15;1.58;;;0.70;;
26718;SDS011;14326;50.794;6.060;2022-12-29T00:44:00;1.67;;;0.70;;
26718;SDS011;14326;50.794;6.060;2022-12-29T00:46:32;2.05;;;0.80;;
26718;SDS011;14326;50.794;6.060;2022-12-29T00:48:59;0.60;;;0.50;;
26718;SDS011;14326;50.794;6.060;2022-12-29T00:51:44;1.02;;;0.68;;
26718;SDS011;14326;50.794;6.060;2022-12-29T00:54:12;3.70;;;0.95;;
26718;SDS011;14326;50.794;6.060;2022-12-29T00:56:39;2.67;;;0.80;;
26718;SDS011;14326;50.794;6.060;2022-12-29T00:59:07;1.10;;;0.65;;
26718;SDS011;14326;50.794;6.060;2022-12-29T01:01:35;1.67;;;0.80;;
26718;SDS011;14326;50.794;6.060;2022-12-29T01:04:02;1.58;;;0.68;;
26718;SDS011;14326;50.794;6.060;2022-12-29T01:06:30;2.90;;;1.63;;
26718;SDS011;14326;50.794;6.060;2022-12-29T01:08:57;2.88;;;0.80;;
26718;SDS011;14326;50.794;6.060;2022-12-29T01:11:42;1.52;;;0.90;;
26718;SDS011;14326;50.794;6.060;2022-12-29T01:14:09;3.25;;;0.80;;
26718;SDS011;14326;50.794;6.060;2022-12-29T01:16:35;1.73;;;0.82;;
26718;SDS011;14326;50.794;6.060;2022-12-29T01:19:02;3.13;;;0.93;;
26718;SDS011;14326;50.794;6.060;2022-12-29T01:21:29;1.55;;;0.80;;
26718;SDS011;14326;50.794;6.060;2022-12-29T01:23:56;2.72;;;0.80;;
26718;SDS011;14326;50.794;6.060;2022-12-29T01:26:22;3.63;;;1.00;;
26718;SDS011;14326;50.794;6.060;2022-12-29T01:28:50;5.75;;;1.33;;
26718;SDS011;14326;50.794;6.060;2022-12-29T01:31:17;6.45;;;1.25;;
26718;SDS011;14326;50.794;6.060;2022-12-29T01:33:44;4.50;;;1.10;;
26718;SDS011;14326;50.794;6.060;2022-12-29T01:36:11;5.82;;;1.20;;
26718;SDS011;14326;50.794;6.060;2022-12-29T01:38:40;7.03;;;1.48;;
26718;SDS011;14326;50.794;6.060;2022-12-29T01:41:08;5.28;;;1.20;;
26718;SDS011;14326;50.794;6.060;2022-12-29T01:43:40;1.77;;;0.90;;
26718;SDS011;14326;50.794;6.060;2022-12-29T01:46:13;3.33;;;1.25;;
26718;SDS011;14326;50.794;6.060;2022-12-29T01:48:45;6.07;;;1.27;;
26718;SDS011;14326;50.794;6.060;2022-12-29T01:51:13;5.45;;;1.20;;
26718;SDS011;14326;50.794;6.060;2022-12-29T01:53:40;5.20;;;1.00;;
26718;SDS011;14326;50.794;6.060;2022-12-29T01:56:09;1.40;;;1.02;;
26718;SDS011;14326;50.794;6.060;2022-12-29T02:01:08;3.50;;;1.00;;
26718;SDS011;14326;50.794;6.060;2022-12-29T02:03:36;4.15;;;1.20;;
26718;SDS011;14326;50.794;6.060;2022-12-29T02:06:03;6.10;;;1.35;;
26718;SDS011;14326;50.794;6.060;2022-12-29T02:08:36;5.35;;;1.10;;
26718;SDS011;14326;50.794;6.060;2022-12-29T02:11:05;9.43;;;1.35;;
26718;SDS011;14326;50.794;6.060;2022-12-29T02:13:33;5.63;;;1.10;;
26718;SDS011;14326;50.794;6.060;2022-12-29T02:16:01;3.05;;;1.13;;
26718;SDS011;14326;50.794;6.060;2022-12-29T02:18:39;5.72;;;0.98;;
26718;SDS011;14326;50.794;6.060;2022-12-29T02:24:21;7.65;;;1.52;;
26718;SDS011;14326;50.794;6.060;2022-12-29T02:27:20;6.13;;;1.27;;
26718;SDS011;14326;50.794;6.060;2022-12-29T02:30:05;3.10;;;0.90;;
26718;SDS011;14326;50.794;6.060;2022-12-29T02:32:52;3.80;;;1.00;;
26718;SDS011;14326;50.794;6.060;2022-12-29T02:35:29;0.88;;;0.70;;
26718;SDS011;14326;50.794;6.060;2022-12-29T02:38:05;3.03;;;0.80;;
26718;SDS011;14326;50.794;6.060;2022-12-29T02:40:41;3.22;;;0.90;;
26718;SDS011;14326;50.794;6.060;2022-12-29T02:43:14;1.70;;;0.63;;
26718;SDS011;14326;50.794;6.060;2022-12-29T02:45:51;3.80;;;1.10;;
26718;SDS011;14326;50.794;6.060;2022-12-29T02:48:24;4.32;;;0.98;;
26718;SDS011;14326;50.794;6.060;2022-12-29T02:50:57;2.47;;;1.00;;
26718;SDS011;14326;50.794;6.060;2022-12-29T02:53:28;2.50;;;0.82;;
26718;SDS011;14326;50.794;6.060;2022-12-29T02:56:15;4.43;;;1.00;;
26718;SDS011;14326;50.794;6.060;2022-12-29T02:58:42;3.90;;;0.70;;
26718;SDS011;14326;50.794;6.060;2022-12-29T03:01:23;3.13;;;1.00;;
26718;SDS011;14326;50.794;6.060;2022-12-29T03:04:03;1.33;;;0.57;;
26718;SDS011;14326;50.794;6.060;2022-12-29T03:06:46;1.48;;;0.70;;
26718;SDS011;14326;50.794;6.060;2022-12-29T03:09:21;1.85;;;0.73;;
26718;SDS011;14326;50.794;6.060;2022-12-29T03:11:58;1.85;;;0.80;;
26718;SDS011;14326;50.794;6.060;2022-12-29T03:14:48;2.72;;;0.90;;
26718;SDS011;14326;50.794;6.060;2022-12-29T03:17:41;4.35;;;0.98;;
26718;SDS011;14326;50.794;6.060;2022-12-29T03:20:16;1.98;;;0.80;;
26718;SDS011;14326;50.794;6.060;2022-12-29T03:22:47;5.07;;;1.10;;
26718;SDS011;14326;50.794;6.060;2022-12-29T03:27:48;4.25;;;0.80;;
26718;SDS011;14326;50.794;6.060;2022-12-29T03:30:16;5.07;;;1.20;;
26718;SDS011;14326;50.794;6.060;2022-12-29T03:32:44;4.78;;;1.05;;
26718;SDS011;14326;50.794;6.060;2022-12-29T03:35:13;1.48;;;0.80;;
26718;SDS011;14326;50.794;6.060;2022-12-29T03:37:44;3.75;;;0.85;;
26718;SDS011;14326;50.794;6.060;2022-12-29T03:40:16;4.53;;;1.20;;
26718;SDS011;14326;50.794;6.060;2022-12-29T03:42:43;2.22;;;0.82;;
26718;SDS011;14326;50.794;6.060;2022-12-29T03:45:11;1.50;;;0.75;;
26718;SDS011;14326;50.794;6.060;2022-12-29T03:47:37;2.78;;;0.75;;
26718;SDS011;14326;50.794;6.060;2022-12-29T03:50:04;2.70;;;1.08;;
26718;SDS011;14326;50.794;6.060;2022-12-29T03:52:34;2.20;;;0.65;;
26718;SDS011;14326;50.794;6.060;2022-12-29T03:55:01;3.78;;;0.95;;
26718;SDS011;14326;50.794;6.060;2022-12-29T03:57:28;5.10;;;1.23;;
26718;SDS011;14326;50.794;6.060;2022-12-29T03:59:54;2.38;;;0.98;;
26718;SDS011;14326;50.794;6.060;2022-12-29T04:02:21;3.80;;;1.10;;
26718;SDS011;14326;50.794;6.060;2022-12-29T04:04:48;4.15;;;0.98;;
26718;SDS011;14326;50.794;6.060;2022-12-29T04:07:15;3.47;;;1.02;;
26718;SDS011;14326;50.794;6.060;2022-12-29T04:09:43;2.97;;;1.00;;
26718;SDS011;14326;50.794;6.060;2022-12-29T04:12:12;2.35;;;0.90;;
26718;SDS011;14326;50.794;6.060;2022-12-29T04:14:39;3.13;;;1.08;;
26718;SDS011;14326;50.794;6.060;2022-12-29T04:17:06;2.60;;;0.93;;
26718;SDS011;14326;50.794;6.060;2022-12-29T04:19:32;4.57;;;1.63;;
26718;SDS011;14326;50.794;6.060;2022-12-29T04:21:59;4.07;;;1.20;;
26718;SDS011;14326;50.794;6.060;2022-12-29T04:24:26;3.70;;;0.90;;
26718;SDS011;14326;50.794;6.060;2022-12-29T04:26:53;2.63;;;0.93;;
26718;SDS011;14326;50.794;6.060;2022-12-29T04:29:20;5.22;;;1.20;;
26718;SDS011;14326;50.794;6.060;2022-12-29T04:31:47;2.60;;;0.68;;
26718;SDS011;14326;50.794;6.060;2022-12-29T04:34:14;3.05;;;1.40;;
26718;SDS011;14326;50.794;6.060;2022-12-29T04:36:41;5.53;;;1.00;;
26718;SDS011;14326;50.794;6.060;2022-12-29T04:39:07;9.48;;;1.30;;
26718;SDS011;14326;50.794;6.060;2022-12-29T04:41:34;5.28;;;1.10;;
26718;SDS011;14326;50.794;6.060;2022-12-29T04:44:02;5.55;;;0.90;;
26718;SDS011;14326;50.794;6.060;2022-12-29T04:46:28;2.30;;;0.93;;
26718;SDS011;14326;50.794;6.060;2022-12-29T04:48:55;2.92;;;0.77;;
26718;SDS011;14326;50.794;6.060;2022-12-29T04:51:22;3.33;;;0.95;;
26718;SDS011;14326;50.794;6.060;2022-12-29T04:53:48;6.60;;;1.05;;
26718;SDS011;14326;50.794;6.060;2022-12-29T04:56:15;7.20;;;1.00;;
26718;SDS011;14326;50.794;6.060;2022-12-29T04:58:41;3.58;;;0.90;;
26718;SDS011;14326;50.794;6.060;2022-12-29T05:01:09;3.45;;;0.70;;
26718;SDS011;14326;50.794;6.060;2022-12-29T05:03:36;4.82;;;0.82;;
26718;SDS011;14326;50.794;6.060;2022-12-29T05:06:03;4.43;;;0.98;;
26718;SDS011;14326;50.794;6.060;2022-12-29T05:08:29;3.70;;;0.80;;
26718;SDS011;14326;50.794;6.060;2022-12-29T05:10:56;3.65;;;1.02;;
26718;SDS011;14326;50.794;6.060;2022-12-29T05:13:22;3.85;;;1.10;;
26718;SDS011;14326;50.794;6.060;2022-12-29T05:15:49;3.72;;;1.17;;
26718;SDS011;14326;50.794;6.060;2022-12-29T05:18:18;6.50;;;0.80;;
26718;SDS011;14326;50.794;6.060;2022-12-29T05:20:45;3.95;;;1.00;;
26718;SDS011;14326;50.794;6.060;2022-12-29T05:23:13;4.75;;;1.30;;
26718;SDS011;14326;50.794;6.060;2022-12-29T05:25:40;2.58;;;0.70;;
26718;SDS011;14326;50.794;6.060;2022-12-29T05:28:07;6.03;;;0.98;;
26718;SDS011;14326;50.794;6.060;2022-12-29T05:30:35;5.90;;;0.82;;
26718;SDS011;14326;50.794;6.060;2022-12-29T05:33:01;7.40;;;1.00;;
26718;SDS011;14326;50.794;6.060;2022-12-29T05:35:32;3.97;;;1.08;;
26718;SDS011;14326;50.794;6.060;2022-12-29T05:37:59;2.90;;;0.85;;
26718;SDS011;14326;50.794;6.060;2022-12-29T05:40:25;3.63;;;0.95;;
26718;SDS011;14326;50.794;6.060;2022-12-29T05:42:52;6.72;;;0.80;;
26718;SDS011;14326;50.794;6.060;2022-12-29T05:45:18;3.10;;;0.65;;
26718;SDS011;14326;50.794;6.060;2022-12-29T05:47:45;7.70;;;1.02;;
26718;SDS011;14326;50.794;6.060;2022-12-29T05:50:12;6.85;;;1.17;;
26718;SDS011;14326;50.794;6.060;2022-12-29T05:52:40;4.60;;;1.60;;
26718;SDS011;14326;50.794;6.060;2022-12-29T05:55:06;3.97;;;0.90;;
26718;SDS011;14326;50.794;6.060;2022-12-29T05:57:33;2.85;;;0.75;;
26718;SDS011;14326;50.794;6.060;2022-12-29T06:00:00;3.92;;;0.88;;
26718;SDS011;14326;50.794;6.060;2022-12-29T06:02:29;3.88;;;0.77;;
26718;SDS011;14326;50.794;6.060;2022-12-29T06:04:56;6.75;;;0.95;;
26718;SDS011;14326;50.794;6.060;2022-12-29T06:07:23;2.20;;;0.70;;
26718;SDS011;14326;50.794;6.060;2022-12-29T06:09:50;6.85;;;1.35;;
26718;SDS011;14326;50.794;6.060;2022-12-29T06:12:17;5.55;;;1.10;;
26718;SDS011;14326;50.794;6.060;2022-12-29T06:14:44;3.63;;;0.90;;
26718;SDS011;14326;50.794;6.060;2022-12-29T06:17:10;7.53;;;1.40;;
26718;SDS011;14326;50.794;6.060;2022-12-29T06:19:37;2.80;;;0.70;;
26718;SDS011;14326;50.794;6.060;2022-12-29T06:22:03;5.65;;;0.85;;
26718;SDS011;14326;50.794;6.060;2022-12-29T06:24:33;2.78;;;0.85;;
26718;SDS011;14326;50.794;6.060;2022-12-29T06:27:01;4.38;;;0.95;;
26718;SDS011;14326;50.794;6.060;2022-12-29T06:29:28;4.35;;;0.60;;
26718;SDS011;14326;50.794;6.060;2022-12-29T06:31:54;6.03;;;1.00;;
26718;SDS011;14326;50.794;6.060;2022-12-29T06:34:23;8.93;;;1.27;;
26718;SDS011;14326;50.794;6.060;2022-12-29T06:36:50;4.38;;;1.00;;
26718;SDS011;14326;50.794;6.060;2022-12-29T06:39:16;8.43;;;1.48;;
26718;SDS011;14326;50.794;6.060;2022-12-29T06:41:43;9.07;;;1.52;;
26718;SDS011;14326;50.794;6.060;2022-12-29T06:44:11;6.82;;;2.17;;
26718;SDS011;14326;50.794;6.060;2022-12-29T06:46:37;6.75;;;1.05;;
26718;SDS011;14326;50.794;6.060;2022-12-29T06:49:04;5.22;;;0.90;;
26718;SDS011;14326;50.794;6.060;2022-12-29T06:51:30;7.68;;;1.23;;
26718;SDS011;14326;50.794;6.060;2022-12-29T06:53:57;7.40;;;1.33;;
26718;SDS011;14326;50.794;6.060;2022-12-29T06:56:23;8.32;;;1.17;;
26718;SDS011;14326;50.794;6.060;2022-12-29T06:58:50;6.78;;;1.10;;
26718;SDS011;14326;50.794;6.060;2022-12-29T07:01:18;7.80;;;1.17;;
26718;SDS011;14326;50.794;6.060;2022-12-29T07:03:45;5.18;;;0.90;;
26718;SDS011;14326;50.794;6.060;2022-12-29T07:06:12;5.50;;;1.33;;
26718;SDS011;14326;50.794;6.060;2022-12-29T07:08:38;4.32;;;0.80;;
26718;SDS011;14326;50.794;6.060;2022-12-29T07:11:05;5.88;;;1.02;;
26718;SDS011;14326;50.794;6.060;2022-12-29T07:13:32;7.47;;;1.10;;
26718;SDS011;14326;50.794;6.060;2022-12-29T07:15:58;8.35;;;0.98;;
26718;SDS011;14326;50.794;6.060;2022-12-29T07:18:26;4.63;;;1.25;;
26718;SDS011;14326;50.794;6.060;2022-12-29T07:20:53;6.95;;;1.20;;
26718;SDS011;14326;50.794;6.060;2022-12-29T07:23:19;5.32;;;1.27;;
26718;SDS011;14326;50.794;6.060;2022-12-29T07:25:46;2.67;;;1.23;;
26718;SDS011;14326;50.794;6.060;2022-12-29T07:28:12;9.25;;;1.40;;
26718;SDS011;14326;50.794;6.060;2022-12-29T07:30:40;5.65;;;0.93;;
26718;SDS011;14326;50.794;6.060;2022-12-29T07:33:06;8.43;;;1.73;;
26718;SDS011;14326;50.794;6.060;2022-12-29T07:35:35;11.13;;;1.38;;
26718;SDS011;14326;50.794;6.060;2022-12-29T07:38:01;9.43;;;1.00;;
26718;SDS011;14326;50.794;6.060;2022-12-29T07:40:28;7.90;;;1.50;;
26718;SDS011;14326;50.794;6.060;2022-12-29T07:42:55;5.30;;;1.00;;
26718;SDS011;14326;50.794;6.060;2022-12-29T07:45:21;6.22;;;1.33;;
26718;SDS011;14326;50.794;6.060;2022-12-29T07:47:48;12.80;;;1.60;;
26718;SDS011;14326;50.794;6.060;2022-12-29T07:50:15;8.15;;;1.33;;
26718;SDS011;14326;50.794;6.060;2022-12-29T07:52:43;11.05;;;1.38;;
26718;SDS011;14326;50.794;6.060;2022-12-29T07:55:12;7.13;;;1.05;;
26718;SDS011;14326;50.794;6.060;2022-12-29T07:57:38;11.25;;;1.67;;
26718;SDS011;14326;50.794;6.060;2022-12-29T08:00:05;10.38;;;1.35;;
26718;SDS011;14326;50.794;6.060;2022-12-29T08:02:34;9.75;;;1.73;;
26718;SDS011;14326;50.794;6.060;2022-12-29T08:05:01;8.40;;;1.33;;
26718;SDS011;14326;50.794;6.060;2022-12-29T08:07:28;11.60;;;2.25;;
26718;SDS011;14326;50.794;6.060;2022-12-29T08:09:56;11.32;;;1.40;;
26718;SDS011;14326;50.794;6.060;2022-12-29T08:12:22;8.63;;;1.50;;
26718;SDS011;14326;50.794;6.060;2022-12-29T08:14:49;10.85;;;1.92;;
26718;SDS011;14326;50.794;6.060;2022-12-29T08:17:16;9.73;;;1.77;;
26718;SDS011;14326;50.794;6.060;2022-12-29T08:19:44;9.50;;;1.30;;
26718;SDS011;14326;50.794;6.060;2022-12-29T08:22:11;11.98;;;1.80;;
26718;SDS011;14326;50.794;6.060;2022-12-29T08:24:39;10.85;;;1.70;;
26718;SDS011;14326;50.794;6.060;2022-12-29T08:27:07;8.77;;;1.50;;
26718;SDS011;14326;50.794;6.060;2022-12-29T08:29:33;13.43;;;1.27;;
26718;SDS011;14326;50.794;6.060;2022-12-29T08:32:00;9.70;;;1.42;;
26718;SDS011;14326;50.794;6.060;2022-12-29T08:34:27;12.25;;;1.98;;
26718;SDS011;14326;50.794;6.060;2022-12-29T08:36:53;8.90;;;1.58;;
26718;SDS011;14326;50.794;6.060;2022-12-29T08:39:20;10.55;;;1.58;;
26718;SDS011;14326;50.794;6.060;2022-12-29T08:41:46;5.75;;;1.10;;
26718;SDS011;14326;50.794;6.060;2022-12-29T08:44:14;10.15;;;1.80;;
26718;SDS011;14326;50.794;6.060;2022-12-29T08:46:41;8.57;;;1.27;;
26718;SDS011;14326;50.794;6.060;2022-12-29T08:49:08;11.27;;;1.95;;
26718;SDS011;14326;50.794;6.060;2022-12-29T08:51:36;10.68;;;1.23;;
26718;SDS011;14326;50.794;6.060;2022-12-29T08:54:03;9.98;;;1.48;;
26718;SDS011;14326;50.794;6.060;2022-12-29T08:56:30;12.35;;;2.22;;
26718;SDS011;14326;50.794;6.060;2022-12-29T08:58:56;13.40;;;1.27;;
26718;SDS011;14326;50.794;6.060;2022-12-29T09:01:24;10.13;;;1.65;;
26718;SDS011;14326;50.794;6.060;2022-12-29T09:03:52;12.85;;;1.40;;
26718;SDS011;14326;50.794;6.060;2022-12-29T09:06:19;13.73;;;1.90;;
26718;SDS011;14326;50.794;6.060;2022-12-29T09:08:46;14.10;;;1.92;;
26718;SDS011;14326;50.794;6.060;2022-12-29T09:11:14;11.10;;;1.65;;
26718;SDS011;14326;50.794;6.060;2022-12-29T09:16:10;7.82;;;1.45;;
26718;SDS011;14326;50.794;6.060;2022-12-29T09:18:39;10.77;;;1.48;;
26718;SDS011;14326;50.794;6.060;2022-12-29T09:21:06;13.32;;;1.65;;
26718;SDS011;14326;50.794;6.060;2022-12-29T09:23:33;8.82;;;1.50;;
26718;SDS011;14326;50.794;6.060;2022-12-29T09:26:00;14.13;;;1.92;;
26718;SDS011;14326;50.794;6.060;2022-12-29T09:28:27;12.02;;;1.63;;
26718;SDS011;14326;50.794;6.060;2022-12-29T09:30:55;13.02;;;2.33;;
26718;SDS011;14326;50.794;6.060;2022-12-29T09:33:22;12.48;;;1.52;;
26718;SDS011;14326;50.794;6.060;2022-12-29T09:35:51;9.98;;;1.67;;
26718;SDS011;14326;50.794;6.060;2022-12-29T09:38:19;14.48;;;1.73;;
26718;SDS011;14326;50.794;6.060;2022-12-29T09:40:48;13.48;;;1.70;;
26718;SDS011;14326;50.794;6.060;2022-12-29T09:43:21;6.85;;;1.50;;
26718;SDS011;14326;50.794;6.060;2022-12-29T09:46:08;15.43;;;1.48;;
26718;SDS011;14326;50.794;6.060;2022-12-29T09:48:45;12.05;;;1.80;;
26718;SDS011;14326;50.794;6.060;2022-12-29T09:51:20;11.48;;;1.90;;
26718;SDS011;14326;50.794;6.060;2022-12-29T09:53:50;13.82;;;2.35;;
26718;SDS011;14326;50.794;6.060;2022-12-29T09:56:21;10.05;;;1.50;;
26718;SDS011;14326;50.794;6.060;2022-12-29T09:58:51;15.20;;;1.90;;
26718;SDS011;14326;50.794;6.060;2022-12-29T10:01:22;13.68;;;1.70;;
26718;SDS011;14326;50.794;6.060;2022-12-29T10:03:55;13.80;;;1.85;;
26718;SDS011;14326;50.794;6.060;2022-12-29T10:06:25;13.65;;;1.92;;
26718;SDS011;14326;50.794;6.060;2022-12-29T10:09:00;12.63;;;1.63;;
26718;SDS011;14326;50.794;6.060;2022-12-29T10:11:35;10.48;;;1.73;;
26718;SDS011;14326;50.794;6.060;2022-12-29T10:14:19;10.32;;;1.95;;
26718;SDS011;14326;50.794;6.060;2022-12-29T10:16:57;8.95;;;1.67;;
26718;SDS011;14326;50.794;6.060;2022-12-29T10:19:40;12.88;;;1.92;;
26718;SDS011;14326;50.794;6.060;2022-12-29T10:22:23;13.15;;;1.85;;
26718;SDS011;14326;50.794;6.060;2022-12-29T10:24:56;13.18;;;2.70;;
26718;SDS011;14326;50.794;6.060;2022-12-29T10:27:27;12.20;;;1.70;;
26718;SDS011;14326;50.794;6.060;2022-12-29T10:29:57;12.95;;;1.52;;
26718;SDS011;14326;50.794;6.060;2022-12-29T10:32:28;13.52;;;1.85;;
26718;SDS011;14326;50.794;6.060;2022-12-29T10:35:00;11.65;;;1.80;;
26718;SDS011;14326;50.794;6.060;2022-12-29T10:37:34;10.60;;;1.50;;
26718;SDS011;14326;50.794;6.060;2022-12-29T10:40:14;16.20;;;2.03;;
26718;SDS011;14326;50.794;6.060;2022-12-29T10:42:46;15.05;;;1.92;;
26718;SDS011;14326;50.794;6.060;2022-12-29T10:45:18;14.85;;;1.77;;
26718;SDS011;14326;50.794;6.060;2022-12-29T10:47:49;13.02;;;1.63;;
26718;SDS011;14326;50.794;6.060;2022-12-29T10:50:20;11.80;;;1.90;;
26718;SDS011;14326;50.794;6.060;2022-12-29T10:52:48;8.90;;;1.42;;
26718;SDS011;14326;50.794;6.060;2022-12-29T10:55:16;13.63;;;1.80;;
26718;SDS011;14326;50.794;6.060;2022-12-29T10:57:48;12.15;;;1.58;;
26718;SDS011;14326;50.794;6.060;2022-12-29T11:00:15;14.20;;;1.80;;
26718;SDS011;14326;50.794;6.060;2022-12-29T11:05:40;10.95;;;1.75;;
26718;SDS011;14326;50.794;6.060;2022-12-29T11:08:10;8.93;;;1.55;;
26718;SDS011;14326;50.794;6.060;2022-12-29T11:10:40;14.18;;;1.60;;
26718;SDS011;14326;50.794;6.060;2022-12-29T11:13:13;15.45;;;1.88;;
26718;SDS011;14326;50.794;6.060;2022-12-29T11:15:42;13.93;;;2.22;;
26718;SDS011;14326;50.794;6.060;2022-12-29T11:18:23;9.77;;;1.48;;
26718;SDS011;14326;50.794;6.060;2022-12-29T11:20:52;11.70;;;1.95;;
26718;SDS011;14326;50.794;6.060;2022-12-29T11:23:26;15.10;;;1.55;;
26718;SDS011;14326;50.794;6.060;2022-12-29T11:26:05;9.60;;;1.95;;
26718;SDS011;14326;50.794;6.060;2022-12-29T11:28:33;9.73;;;1.42;;
26718;SDS011;14326;50.794;6.060;2022-12-29T11:31:00;12.18;;;1.73;;
26718;SDS011;14326;50.794;6.060;2022-12-29T11:33:27;11.75;;;1.40;;
26718;SDS011;14326;50.794;6.060;2022-12-29T11:35:56;11.70;;;1.60;;
26718;SDS011;14326;50.794;6.060;2022-12-29T11:38:27;5.18;;;0.90;;
26718;SDS011;14326;50.794;6.060;2022-12-29T11:41:00;13.93;;;1.65;;
26718;SDS011;14326;50.794;6.060;2022-12-29T11:43:28;12.15;;;1.63;;
26718;SDS011;14326;50.794;6.060;2022-12-29T11:45:58;14.23;;;2.17;;
26718;SDS011;14326;50.794;6.060;2022-12-29T11:48:29;10.18;;;1.83;;
26718;SDS011;14326;50.794;6.060;2022-12-29T11:50:59;15.77;;;2.03;;
26718;SDS011;14326;50.794;6.060;2022-12-29T11:53:28;14.38;;;1.88;;
26718;SDS011;14326;50.794;6.060;2022-12-29T11:56:04;14.43;;;2.03;;
26718;SDS011;14326;50.794;6.060;2022-12-29T11:58:32;9.07;;;1.55;;
26718;SDS011;14326;50.794;6.060;2022-12-29T12:01:00;7.35;;;1.33;;
26718;SDS011;14326;50.794;6.060;2022-12-29T12:03:30;6.83;;;1.70;;
26718;SDS011;14326;50.794;6.060;2022-12-29T12:06:01;9.73;;;1.70;;
26718;SDS011;14326;50.794;6.060;2022-12-29T12:08:35;13.77;;;1.90;;
26718;SDS011;14326;50.794;6.060;2022-12-29T12:11:06;11.15;;;1.70;;
26718;SDS011;14326;50.794;6.060;2022-12-29T12:13:39;16.25;;;2.17;;
26718;SDS011;14326;50.794;6.060;2022-12-29T12:16:11;20.23;;;2.30;;
26718;SDS011;14326;50.794;6.060;2022-12-29T12:18:41;17.60;;;1.88;;
26718;SDS011;14326;50.794;6.060;2022-12-29T12:21:15;20.00;;;2.35;;
26718;SDS011;14326;50.794;6.060;2022-12-29T12:24:00;11.15;;;1.90;;
26718;SDS011;14326;50.794;6.060;2022-12-29T12:26:44;15.15;;;1.38;;
26718;SDS011;14326;50.794;6.060;2022-12-29T12:29:22;8.43;;;1.60;;
26718;SDS011;14326;50.794;6.060;2022-12-29T12:31:56;13.82;;;1.50;;
26718;SDS011;14326;50.794;6.060;2022-12-29T12:34:28;18.08;;;2.22;;
26718;SDS011;14326;50.794;6.060;2022-12-29T12:40:07;13.85;;;2.22;;
26718;SDS011;14326;50.794;6.060;2022-12-29T12:42:49;10.25;;;1.80;;
26718;SDS011;14326;50.794;6.060;2022-12-29T12:48:26;12.70;;;2.30;;
26718;SDS011;14326;50.794;6.060;2022-12-29T12:51:03;9.82;;;1.70;;
26718;SDS011;14326;50.794;6.060;2022-12-29T12:53:49;13.65;;;1.70;;
26718;SDS011;14326;50.794;6.060;2022-12-29T12:56:35;9.25;;;1.55;;
26718;SDS011;14326;50.794;6.060;2022-12-29T12:59:16;8.77;;;1.50;;
26718;SDS011;14326;50.794;6.060;2022-12-29T13:01:58;10.05;;;1.23;;
26718;SDS011;14326;50.794;6.060;2022-12-29T13:04:46;14.98;;;1.88;;
26718;SDS011;14326;50.794;6.060;2022-12-29T13:07:25;10.85;;;1.77;;
26718;SDS011;14326;50.794;6.060;2022-12-29T13:10:08;15.82;;;1.65;;
26718;SDS011;14326;50.794;6.060;2022-12-29T13:12:48;9.40;;;1.50;;
26718;SDS011;14326;50.794;6.060;2022-12-29T13:15:27;8.65;;;1.83;;
26718;SDS011;14326;50.794;6.060;2022-12-29T13:18:10;10.52;;;1.35;;
26718;SDS011;14326;50.794;6.060;2022-12-29T13:20:45;6.93;;;1.42;;
26718;SDS011;14326;50.794;6.060;2022-12-29T13:23:19;10.25;;;1.17;;
26718;SDS011;14326;50.794;6.060;2022-12-29T13:25:54;7.72;;;1.63;;
26718;SDS011;14326;50.794;6.060;2022-12-29T13:28:30;12.70;;;1.70;;
26718;SDS011;14326;50.794;6.060;2022-12-29T13:31:05;12.82;;;1.90;;
26718;SDS011;14326;50.794;6.060;2022-12-29T13:33:43;4.88;;;0.93;;
26718;SDS011;14326;50.794;6.060;2022-12-29T13:36:20;12.55;;;1.30;;
26718;SDS011;14326;50.794;6.060;2022-12-29T13:38:50;10.27;;;1.33;;
26718;SDS011;14326;50.794;6.060;2022-12-29T13:41:23;12.82;;;1.75;;
26718;SDS011;14326;50.794;6.060;2022-12-29T13:43:55;7.13;;;1.17;;
26718;SDS011;14326;50.794;6.060;2022-12-29T13:46:24;9.30;;;1.50;;
26718;SDS011;14326;50.794;6.060;2022-12-29T13:48:57;7.32;;;1.02;;
26718;SDS011;14326;50.794;6.060;2022-12-29T13:51:28;14.15;;;2.35;;
26718;SDS011;14326;50.794;6.060;2022-12-29T13:53:59;6.65;;;1.00;;
26718;SDS011;14326;50.794;6.060;2022-12-29T13:56:37;9.30;;;1.08;;
26718;SDS011;14326;50.794;6.060;2022-12-29T14:01:41;9.23;;;1.48;;
26718;SDS011;14326;50.794;6.060;2022-12-29T14:04:16;10.73;;;1.50;;
26718;SDS011;14326;50.794;6.060;2022-12-29T14:06:57;7.53;;;1.40;;
26718;SDS011;14326;50.794;6.060;2022-12-29T14:09:31;10.65;;;1.40;;
26718;SDS011;14326;50.794;6.060;2022-12-29T14:12:31;15.73;;;1.73;;
26718;SDS011;14326;50.794;6.060;2022-12-29T14:15:14;11.07;;;1.58;;
26718;SDS011;14326;50.794;6.060;2022-12-29T14:17:59;11.43;;;2.00;;
26718;SDS011;14326;50.794;6.060;2022-12-29T14:20:36;9.15;;;1.63;;
26718;SDS011;14326;50.794;6.060;2022-12-29T14:23:15;6.55;;;1.35;;
26718;SDS011;14326;50.794;6.060;2022-12-29T14:25:59;12.93;;;1.58;;
26718;SDS011;14326;50.794;6.060;2022-12-29T14:28:35;8.15;;;1.38;;
26718;SDS011;14326;50.794;6.060;2022-12-29T14:31:18;10.80;;;1.90;;
26718;SDS011;14326;50.794;6.060;2022-12-29T14:34:15;11.43;;;1.92;;
26718;SDS011;14326;50.794;6.060;2022-12-29T14:36:54;15.43;;;2.17;;
26718;SDS011;14326;50.794;6.060;2022-12-29T14:39:31;10.88;;;1.58;;
26718;SDS011;14326;50.794;6.060;2022-12-29T14:42:01;7.47;;;1.52;;
26718;SDS011;14326;50.794;6.060;2022-12-29T14:44:32;11.32;;;1.70;;
26718;SDS011;14326;50.794;6.060;2022-12-29T14:47:03;13.63;;;1.73;;
26718;SDS011;14326;50.794;6.060;2022-12-29T14:49:38;13.35;;;1.88;;
26718;SDS011;14326;50.794;6.060;2022-12-29T14:52:13;15.25;;;2.25;;
26718;SDS011;14326;50.794;6.060;2022-12-29T14:54:45;9.85;;;2.10;;
26718;SDS011;14326;50.794;6.060;2022-12-29T14:57:27;11.43;;;2.00;;
26718;SDS011;14326;50.794;6.060;2022-12-29T15:00:00;14.90;;;2.20;;
26718;SDS011;14326;50.794;6.060;2022-12-29T15:02:36;14.18;;;1.83;;
26718;SDS011;14326;50.794;6.060;2022-12-29T15:05:20;15.48;;;2.08;;
26718;SDS011;14326;50.794;6.060;2022-12-29T15:07:55;12.30;;;2.10;;
26718;SDS011;14326;50.794;6.060;2022-12-29T15:10:26;15.38;;;2.25;;
26718;SDS011;14326;50.794;6.060;2022-12-29T15:13:03;13.18;;;2.33;;
26718;SDS011;14326;50.794;6.060;2022-12-29T15:15:40;15.88;;;2.47;;
26718;SDS011;14326;50.794;6.060;2022-12-29T15:21:00;10.30;;;2.65;;
26718;SDS011;14326;50.794;6.060;2022-12-29T15:23:32;16.58;;;2.47;;
26718;SDS011;14326;50.794;6.060;2022-12-29T15:26:04;15.55;;;1.90;;
26718;SDS011;14326;50.794;6.060;2022-12-29T15:28:37;16.75;;;2.15;;
26718;SDS011;14326;50.794;6.060;2022-12-29T15:31:10;13.68;;;2.28;;
26718;SDS011;14326;50.794;6.060;2022-12-29T15:33:44;9.40;;;1.77;;